In Rescue
 
Open Full Screen Window  High Contrast Mode
Wind Gusting 00 knots
05
May 25, 2022 10:57 PM EDT
Present Weather: Mist
Weather Information
Wind Direction
  140 °
Wind Speed
  05 kt (6 mph)
Wind Gust
  00 kt (0 mph)
Altimeter
29.92 in
Visibility
4 SM
Temperature
19° C
66° F
Dewpoint
18° C
64° F
Humidity
94%
Sky Condition
Overcast @ 11,000 ft
Broken @ 6,000 ft
Scattered @ 3,800 ft
MVFR

METAR KOEB 260257Z AUTO 14005KT 4SM BR SCT038 BKN060 OVC110 19/18 A2992 RMK AO2 T01920180

FAA Disclaimer: The data displayed is for advisory purposes only and is not to be used for flight planning or operations.